createdAt,value
2022-08-26T00:01:29.983Z,99559.19
2022-08-26T00:03:56.993Z,99557.41
2022-08-26T00:06:26.270Z,99559.16
2022-08-26T00:08:53.362Z,99559.53
2022-08-26T00:11:26.854Z,99557.41
2022-08-26T00:13:57.674Z,99558.22
2022-08-26T00:16:28.126Z,99563.03
2022-08-26T00:18:56.040Z,99569.88
2022-08-26T00:21:22.810Z,99565.28
2022-08-26T00:23:50.429Z,99573.63
2022-08-26T00:26:17.245Z,99569.16
2022-08-26T00:28:44.467Z,99574.09
2022-08-26T00:31:11.486Z,99567.72
2022-08-26T00:33:39.710Z,99573.97
2022-08-26T00:36:09.365Z,99576.09
2022-08-26T00:38:46.589Z,99567.25
2022-08-26T00:41:13.729Z,99577.06
2022-08-26T00:43:47.446Z,99576.22
2022-08-26T00:46:20.557Z,99573.84
2022-08-26T00:48:48.141Z,99575.03
2022-08-26T00:51:24.414Z,99578.38
2022-08-26T00:54:06.045Z,99572.75
2022-08-26T00:56:44.545Z,99575.88
2022-08-26T00:59:14.332Z,99577.72
2022-08-26T01:01:44.218Z,99575.38
2022-08-26T01:04:15.540Z,99568.97
2022-08-26T01:06:42.546Z,99566.25
2022-08-26T01:09:11.822Z,99570.72
2022-08-26T01:11:38.914Z,99569.69
2022-08-26T01:14:06.889Z,99572.38
2022-08-26T01:17:01.330Z,99565.03
2022-08-26T01:19:37.625Z,99572.94
2022-08-26T01:22:11.357Z,99564.06
2022-08-26T01:24:38.882Z,99564.19
2022-08-26T01:27:08.794Z,99561.69
2022-08-26T01:29:36.783Z,99567.50
2022-08-26T01:32:05.106Z,99566.22
2022-08-26T01:34:36.167Z,99576.31
2022-08-26T01:37:05.383Z,99578.25
2022-08-26T01:39:33.771Z,99575.19
2022-08-26T01:42:03.227Z,99573.06
2022-08-26T01:44:34.513Z,99569.00
2022-08-26T01:47:02.010Z,99565.47
2022-08-26T01:49:35.729Z,99560.81
2022-08-26T01:52:03.605Z,99566.81
2022-08-26T01:54:31.135Z,99572.94
2022-08-26T01:56:58.758Z,99570.59
2022-08-26T01:59:25.573Z,99566.22
2022-08-26T02:01:53.141Z,99563.22
2022-08-26T02:04:29.564Z,99565.72
2022-08-26T02:06:57.204Z,99569.09
2022-08-26T02:09:26.785Z,99567.91
2022-08-26T02:11:53.722Z,99572.84
2022-08-26T02:14:27.074Z,99566.84
2022-08-26T02:16:55.122Z,99560.34
2022-08-26T02:19:31.381Z,99560.75
2022-08-26T02:22:00.538Z,99556.81
2022-08-26T02:24:30.252Z,99557.50
2022-08-26T02:26:58.117Z,99563.97
2022-08-26T02:29:36.324Z,99565.31
2022-08-26T02:32:10.081Z,99565.94
2022-08-26T02:34:37.653Z,99567.16
2022-08-26T02:37:07.349Z,99572.31
2022-08-26T02:39:35.378Z,99573.38
2022-08-26T02:42:02.277Z,99571.75
2022-08-26T02:44:29.134Z,99565.25
2022-08-26T02:46:56.043Z,99567.44
2022-08-26T02:49:27.438Z,99569.47
2022-08-26T02:51:54.342Z,99562.31
2022-08-26T02:54:21.466Z,99562.91
2022-08-26T02:56:48.700Z,99567.97
2022-08-26T02:59:15.517Z,99562.41
2022-08-26T03:01:42.718Z,99554.94
2022-08-26T03:04:11.745Z,99557.44
2022-08-26T03:06:40.769Z,99556.22
2022-08-26T03:09:08.997Z,99546.88
2022-08-26T03:11:40.243Z,99561.94
2022-08-26T03:14:08.382Z,99559.16
2022-08-26T03:16:36.387Z,99566.91
2022-08-26T03:19:09.057Z,99560.38
2022-08-26T03:21:38.021Z,99556.28
2022-08-26T03:24:05.265Z,99562.25
2022-08-26T03:26:36.213Z,99562.97
2022-08-26T03:29:22.845Z,99557.66
2022-08-26T03:31:49.884Z,99564.13
2022-08-26T03:34:18.437Z,99563.81
2022-08-26T03:36:46.266Z,99563.44
2022-08-26T03:39:13.718Z,99562.41
2022-08-26T03:41:41.163Z,99557.41
2022-08-26T03:44:10.873Z,99550.75
2022-08-26T03:46:39.295Z,99557.91
2022-08-26T03:49:08.052Z,99553.91
2022-08-26T03:51:38.922Z,99553.75
2022-08-26T03:54:06.674Z,99546.69
2022-08-26T03:56:36.483Z,99549.63
2022-08-26T03:59:04.065Z,99546.75
2022-08-26T04:05:51.981Z,99539.56
2022-08-26T04:08:19.129Z,99554.97
2022-08-26T04:10:45.946Z,99557.47
2022-08-26T04:13:12.761Z,99547.91
2022-08-26T04:15:39.464Z,99553.53
2022-08-26T04:22:46.099Z,99552.41
2022-08-26T04:25:13.058Z,99547.34
2022-08-26T04:27:44.045Z,99554.53
2022-08-26T04:30:11.269Z,99546.59
2022-08-26T04:32:38.579Z,99549.69
2022-08-26T04:35:06.982Z,99546.59
2022-08-26T04:37:35.820Z,99540.75
2022-08-26T04:40:02.682Z,99544.91
2022-08-26T04:42:33.226Z,99544.38
2022-08-26T04:45:01.057Z,99550.78
2022-08-26T04:47:32.563Z,99552.22
2022-08-26T04:49:59.989Z,99553.97
2022-08-26T04:52:26.653Z,99550.13
2022-08-26T04:54:54.885Z,99557.91
2022-08-26T04:57:23.177Z,99555.63
2022-08-26T04:59:50.017Z,99560.94
2022-08-26T05:02:16.708Z,99556.66
2022-08-26T05:04:43.807Z,99563.66
2022-08-26T05:07:10.703Z,99565.72
2022-08-26T05:09:40.756Z,99570.72
2022-08-26T05:12:07.981Z,99562.72
2022-08-26T05:14:36.102Z,99567.50
2022-08-26T05:17:03.568Z,99564.81
2022-08-26T05:19:31.494Z,99564.19
2022-08-26T05:21:59.399Z,99562.47
2022-08-26T05:24:26.245Z,99567.84
2022-08-26T05:26:54.038Z,99561.59
2022-08-26T05:29:23.086Z,99567.88
2022-08-26T05:32:18.981Z,99562.88
2022-08-26T05:34:45.623Z,99560.97
2022-08-26T05:37:13.604Z,99564.31
2022-08-26T05:39:41.238Z,99572.78
2022-08-26T05:42:10.138Z,99564.56
2022-08-26T05:44:54.009Z,99565.41
2022-08-26T05:47:23.586Z,99564.97
2022-08-26T05:49:51.636Z,99564.13
2022-08-26T05:52:19.105Z,99572.25
2022-08-26T05:54:45.961Z,99582.63
2022-08-26T05:57:14.692Z,99572.69
2022-08-26T05:59:41.363Z,99576.31
2022-08-26T06:02:09.172Z,99577.53
2022-08-26T06:04:35.882Z,99586.63
2022-08-26T06:07:05.497Z,99588.13
2022-08-26T06:09:36.895Z,99588.78
2022-08-26T06:12:05.453Z,99580.81
2022-08-26T06:14:32.142Z,99597.47
2022-08-26T06:16:58.912Z,99593.47
2022-08-26T06:19:25.616Z,99595.56
2022-08-26T06:22:22.321Z,99599.50
2022-08-26T06:25:09.827Z,99591.13
2022-08-26T06:27:37.773Z,99600.84
2022-08-26T06:30:04.779Z,99600.63
2022-08-26T06:32:31.517Z,99602.84
2022-08-26T06:35:03.309Z,99592.00
2022-08-26T06:38:47.248Z,99594.59
2022-08-26T06:41:17.481Z,99606.03
2022-08-26T06:44:35.626Z,99602.22
2022-08-26T06:47:29.661Z,99602.47
2022-08-26T06:50:47.569Z,99597.91
2022-08-26T06:54:11.828Z,99592.50
2022-08-26T07:01:11.232Z,99595.81
2022-08-26T07:04:32.932Z,99589.56
2022-08-26T07:07:04.094Z,99590.50
2022-08-26T07:09:35.682Z,99599.38
2022-08-26T07:12:04.514Z,99593.63
2022-08-26T07:14:31.702Z,99596.47
2022-08-26T07:17:49.347Z,99593.91
2022-08-26T07:20:16.123Z,99588.88
2022-08-26T07:22:43.795Z,99588.06
2022-08-26T07:25:11.345Z,99590.03
2022-08-26T07:27:38.626Z,99582.72
2022-08-26T07:30:06.761Z,99586.63
2022-08-26T07:32:33.586Z,99583.66
2022-08-26T07:35:00.523Z,99584.28
2022-08-26T07:37:27.212Z,99591.34
2022-08-26T07:39:59.376Z,99593.00
2022-08-26T07:42:26.623Z,99586.88
2022-08-26T07:44:53.772Z,99589.47
2022-08-26T07:47:25.613Z,99586.06
2022-08-26T07:49:54.419Z,99589.50
2022-08-26T07:52:25.936Z,99595.66
2022-08-26T07:54:57.991Z,99590.56
2022-08-26T07:57:26.145Z,99589.03
2022-08-26T07:59:53.929Z,99590.91
2022-08-26T08:02:22.810Z,99580.16
2022-08-26T08:04:49.516Z,99588.91
2022-08-26T08:07:16.275Z,99586.34
2022-08-26T08:09:42.951Z,99583.47
2022-08-26T08:12:14.206Z,99583.59
2022-08-26T08:14:42.087Z,99584.56
2022-08-26T08:17:08.962Z,99578.16
2022-08-26T08:19:38.983Z,99578.53
2022-08-26T08:22:06.874Z,99588.66
2022-08-26T08:24:44.740Z,99581.69
2022-08-26T08:27:11.395Z,99575.41
2022-08-26T08:29:38.757Z,99578.25
2022-08-26T08:32:05.605Z,99578.00
2022-08-26T08:37:08.736Z,99575.38
2022-08-26T08:39:37.598Z,99572.44
2022-08-26T08:42:25.707Z,99571.72
2022-08-26T08:44:53.174Z,99575.97
2022-08-26T08:47:45.273Z,99571.72
2022-08-26T08:50:20.822Z,99568.88
2022-08-26T08:52:55.095Z,99567.09
2022-08-26T08:55:22.609Z,99564.47
2022-08-26T08:58:04.996Z,99566.09
2022-08-26T09:00:44.950Z,99572.31
2022-08-26T09:03:23.524Z,99562.06
2022-08-26T09:05:53.246Z,99568.59
2022-08-26T09:08:27.344Z,99567.63
2022-08-26T09:10:57.856Z,99562.75
2022-08-26T09:13:27.161Z,99564.50
2022-08-26T09:16:19.193Z,99558.72
2022-08-26T09:18:56.346Z,99552.38
2022-08-26T09:21:25.131Z,99545.03
2022-08-26T09:23:55.312Z,99551.16
2022-08-26T09:26:40.850Z,99540.63
2022-08-26T09:31:52.229Z,99526.94
2022-08-26T09:34:24.805Z,99529.72
2022-08-26T09:36:54.123Z,99530.59
2022-08-26T09:39:28.187Z,99526.78
2022-08-26T09:42:11.299Z,99516.13
2022-08-26T09:45:08.362Z,99513.16
2022-08-26T09:47:52.443Z,99507.69
2022-08-26T09:50:29.993Z,99507.22
2022-08-26T09:53:12.633Z,99497.69
2022-08-26T09:55:42.522Z,99494.03
2022-08-26T09:58:16.462Z,99495.19
2022-08-26T10:00:57.590Z,99489.72
2022-08-26T10:03:32.580Z,99479.22
2022-08-26T10:06:04.405Z,99481.78
2022-08-26T10:08:31.062Z,99467.41
2022-08-26T10:10:59.855Z,99457.97
2022-08-26T10:13:33.632Z,99456.63
2022-08-26T10:16:06.153Z,99451.25
2022-08-26T10:18:41.825Z,99450.50
2022-08-26T10:21:22.075Z,99455.94
2022-08-26T10:23:51.812Z,99457.28
2022-08-26T10:26:31.018Z,99463.22
2022-08-26T10:29:06.836Z,99465.75
2022-08-26T10:31:40.686Z,99457.66
2022-08-26T10:34:08.581Z,99448.22
2022-08-26T10:39:58.537Z,99445.31
2022-08-26T10:42:33.034Z,99444.50
2022-08-26T10:45:05.545Z,99462.03
2022-08-26T10:48:05.334Z,99449.72
2022-08-26T10:50:35.516Z,99459.81
2022-08-26T10:53:11.581Z,99458.94
2022-08-26T10:55:50.897Z,99466.78
2022-08-26T10:58:56.269Z,99475.72
2022-08-26T11:01:45.409Z,99471.88
2022-08-26T11:04:27.281Z,99491.09
2022-08-26T11:07:32.247Z,99480.97
2022-08-26T11:10:01.422Z,99495.03
2022-08-26T11:12:37.501Z,99504.00
2022-08-26T11:15:08.727Z,99512.34
2022-08-26T11:17:44.371Z,99509.19
2022-08-26T11:20:28.437Z,99511.00
2022-08-26T11:22:56.325Z,99510.28
2022-08-26T11:25:30.000Z,99523.31
2022-08-26T11:27:59.585Z,99521.56
2022-08-26T11:30:36.819Z,99526.50
2022-08-26T11:33:03.593Z,99537.53
2022-08-26T11:35:34.121Z,99569.66
2022-08-26T11:38:18.371Z,99591.25
2022-08-26T11:40:45.119Z,99600.44
2022-08-26T11:43:20.465Z,99594.06
2022-08-26T11:46:11.202Z,99591.31
2022-08-26T11:48:42.755Z,99587.72
2022-08-26T11:51:21.870Z,99570.38
2022-08-26T11:53:48.674Z,99556.91
2022-08-26T11:56:28.794Z,99536.25
2022-08-26T11:59:00.391Z,99529.97
2022-08-26T12:01:32.562Z,99525.25
2022-08-26T12:03:59.896Z,99523.97
2022-08-26T12:06:31.648Z,99508.63
2022-08-26T12:09:00.477Z,99506.38
2022-08-26T12:11:30.947Z,99511.34
2022-08-26T12:14:01.770Z,99493.53
2022-08-26T12:16:32.552Z,99487.00
2022-08-26T12:19:00.012Z,99483.84
2022-08-26T12:21:34.611Z,99485.13
2022-08-26T12:24:03.341Z,99482.19
2022-08-26T12:26:36.099Z,99476.88
2022-08-26T12:29:10.778Z,99479.00
2022-08-26T12:31:47.879Z,99492.09
2022-08-26T12:34:17.567Z,99490.19
2022-08-26T12:36:48.453Z,99487.50
2022-08-26T12:39:24.060Z,99484.31
2022-08-26T12:41:55.691Z,99475.22
2022-08-26T12:44:37.615Z,99479.13
2022-08-26T12:47:15.931Z,99472.63
2022-08-26T12:49:59.912Z,99475.44
2022-08-26T12:52:31.421Z,99483.34
2022-08-26T12:55:19.657Z,99477.69
2022-08-26T12:57:47.411Z,99487.13
2022-08-26T13:00:34.862Z,99480.41
2022-08-26T13:03:02.037Z,99472.38
2022-08-26T13:05:35.406Z,99463.50
2022-08-26T13:08:10.422Z,99462.91
2022-08-26T13:10:41.083Z,99461.94
2022-08-26T13:13:07.916Z,99454.59
2022-08-26T13:15:34.739Z,99442.78
2022-08-26T13:18:03.077Z,99428.59
2022-08-26T13:20:30.598Z,99434.81
2022-08-26T13:22:58.778Z,99423.47
2022-08-26T13:25:26.255Z,99420.59
2022-08-26T13:27:55.163Z,99416.34
2022-08-26T13:30:21.988Z,99411.47
2022-08-26T13:32:58.981Z,99405.78
2022-08-26T13:35:26.091Z,99406.13
2022-08-26T13:37:53.769Z,99395.09
2022-08-26T13:40:21.567Z,99398.25
2022-08-26T13:42:49.793Z,99390.19
2022-08-26T13:45:17.141Z,99396.53
2022-08-26T13:47:44.534Z,99397.22
2022-08-26T13:50:11.169Z,99389.63
2022-08-26T13:52:37.845Z,99399.53
2022-08-26T13:55:05.223Z,99394.97
2022-08-26T13:57:31.952Z,99390.69
2022-08-26T13:59:59.352Z,99389.94
2022-08-26T14:02:27.386Z,99390.50
2022-08-26T14:04:55.176Z,99384.00
2022-08-26T14:07:22.417Z,99383.00
2022-08-26T14:09:49.101Z,99382.50
2022-08-26T14:12:16.439Z,99373.59
2022-08-26T14:14:43.446Z,99377.97
2022-08-26T14:17:10.098Z,99360.06
2022-08-26T14:19:36.784Z,99360.88
2022-08-26T14:22:04.050Z,99358.72
2022-08-26T14:24:30.887Z,99347.84
2022-08-26T14:26:57.705Z,99351.97
2022-08-26T14:29:24.433Z,99351.72
2022-08-26T14:31:51.116Z,99349.31
2022-08-26T14:34:18.745Z,99345.00
2022-08-26T14:36:45.431Z,99342.38
2022-08-26T14:39:14.223Z,99343.78
2022-08-26T14:41:55.013Z,99332.06
2022-08-26T14:44:28.285Z,99336.81
2022-08-26T14:46:55.462Z,99319.72
2022-08-26T14:49:24.314Z,99312.09
2022-08-26T14:51:53.549Z,99315.97
2022-08-26T14:54:24.074Z,99317.63
2022-08-26T14:56:53.909Z,99310.59
2022-08-26T14:59:30.206Z,99316.03
2022-08-26T15:02:00.370Z,99306.25
2022-08-26T15:04:27.487Z,99314.75
2022-08-26T15:06:56.202Z,99312.03
2022-08-26T15:09:51.915Z,99328.88
2022-08-26T15:12:18.575Z,99319.00
2022-08-26T15:14:47.309Z,99315.56
2022-08-26T15:17:13.976Z,99316.09
2022-08-26T15:19:40.636Z,99317.84
2022-08-26T15:22:07.277Z,99308.38
2022-08-26T15:24:34.052Z,99311.81
2022-08-26T15:27:00.731Z,99307.09
2022-08-26T15:29:27.404Z,99301.13
2022-08-26T15:31:57.206Z,99304.13
2022-08-26T15:34:24.414Z,99293.78
2022-08-26T15:36:51.065Z,99299.56
2022-08-26T15:39:19.062Z,99298.25
2022-08-26T15:41:47.514Z,99306.16
2022-08-26T15:44:16.064Z,99306.16
2022-08-26T15:46:43.228Z,99305.03
2022-08-26T15:49:18.139Z,99321.94
2022-08-26T15:51:47.941Z,99322.78
2022-08-26T15:54:21.121Z,99327.94
2022-08-26T15:56:51.886Z,99332.03
2022-08-26T15:59:24.494Z,99324.09
2022-08-26T16:01:52.473Z,99323.88
2022-08-26T16:04:48.877Z,99330.00
2022-08-26T16:11:23.051Z,99339.81
2022-08-26T16:13:52.624Z,99345.53
2022-08-26T16:16:19.578Z,99341.97
2022-08-26T16:18:51.069Z,99348.44
2022-08-26T16:21:20.717Z,99346.53
2022-08-26T16:28:36.720Z,99333.38
2022-08-26T16:31:05.154Z,99335.00
2022-08-26T16:33:37.807Z,99338.25
2022-08-26T16:36:06.898Z,99346.19
2022-08-26T16:38:59.565Z,99348.22
2022-08-26T16:41:27.174Z,99358.16
2022-08-26T16:43:54.341Z,99355.63
2022-08-26T16:46:25.798Z,99356.97
2022-08-26T16:48:54.736Z,99361.31
2022-08-26T16:51:23.929Z,99373.78
2022-08-26T16:53:51.776Z,99371.06
2022-08-26T16:56:23.218Z,99376.50
2022-08-26T16:58:54.624Z,99382.25
2022-08-26T17:01:21.786Z,99391.00
2022-08-26T17:03:49.757Z,99408.16
2022-08-26T17:06:17.180Z,99405.44
2022-08-26T17:08:44.133Z,99409.22
2022-08-26T17:11:11.683Z,99412.78
2022-08-26T17:13:38.990Z,99402.69
2022-08-26T17:16:08.337Z,99404.59
2022-08-26T17:18:35.683Z,99391.22
2022-08-26T17:21:04.917Z,99386.88
2022-08-26T17:23:31.962Z,99375.41
2022-08-26T17:25:58.700Z,99372.59
2022-08-26T17:28:25.482Z,99377.72
2022-08-26T17:30:52.443Z,99391.59
2022-08-26T17:33:22.021Z,99419.34
2022-08-26T17:35:53.551Z,99436.69
2022-08-26T17:38:21.303Z,99459.56
2022-08-26T17:40:48.029Z,99475.00
2022-08-26T17:43:14.707Z,99483.59
2022-08-26T17:45:41.877Z,99489.56
2022-08-26T17:48:11.169Z,99499.31
2022-08-26T17:50:42.442Z,99495.66
2022-08-26T17:53:12.705Z,99494.34
2022-08-26T17:55:45.772Z,99491.53
2022-08-26T17:58:14.628Z,99497.75
2022-08-26T18:00:49.403Z,99503.66
2022-08-26T18:03:16.831Z,99502.19
2022-08-26T18:05:47.498Z,99511.38
2022-08-26T18:08:14.212Z,99509.91
2022-08-26T18:10:42.411Z,99523.41
2022-08-26T18:13:09.330Z,99541.72
2022-08-26T18:24:58.791Z,99558.19
2022-08-26T18:27:26.464Z,99565.75
2022-08-26T18:29:53.354Z,99558.91
2022-08-26T18:32:20.296Z,99554.66
2022-08-26T18:34:47.029Z,99552.19
2022-08-26T18:39:45.586Z,99562.72
2022-08-26T18:43:03.933Z,99556.66
2022-08-26T18:45:30.762Z,99561.63
2022-08-26T18:47:57.477Z,99564.69
2022-08-26T18:50:24.278Z,99574.72
2022-08-26T18:52:51.126Z,99568.09
2022-08-26T18:55:17.825Z,99578.16
2022-08-26T18:57:44.550Z,99575.69
2022-08-26T19:00:11.908Z,99584.78
2022-08-26T19:02:38.676Z,99584.31
2022-08-26T19:05:06.683Z,99578.28
2022-08-26T19:07:36.565Z,99587.38
2022-08-26T19:10:06.566Z,99587.25
2022-08-26T19:12:35.314Z,99587.50
2022-08-26T19:15:02.577Z,99591.16
2022-08-26T19:17:29.321Z,99590.34
2022-08-26T19:19:56.244Z,99593.97
2022-08-26T19:22:22.903Z,99604.38
2022-08-26T19:24:49.610Z,99600.09
2022-08-26T19:27:16.314Z,99600.59
2022-08-26T19:29:43.065Z,99588.56
2022-08-26T19:32:09.941Z,99598.69
2022-08-26T19:34:36.674Z,99603.31
2022-08-26T19:37:03.484Z,99607.53
2022-08-26T19:39:30.209Z,99621.44
2022-08-26T19:41:57.284Z,99621.91
2022-08-26T19:44:43.110Z,99623.22
2022-08-26T19:47:11.821Z,99640.97
2022-08-26T19:49:39.146Z,99652.59
2022-08-26T19:52:07.070Z,99662.63
2022-08-26T19:54:35.141Z,99637.53
2022-08-26T19:57:03.355Z,99635.63
2022-08-26T19:59:30.153Z,99624.41
2022-08-26T20:02:00.612Z,99610.16
2022-08-26T20:04:32.293Z,99598.94
2022-08-26T20:07:00.867Z,99594.41
2022-08-26T20:09:31.297Z,99589.41
2022-08-26T20:11:59.006Z,99593.75
2022-08-26T20:14:26.607Z,99580.59
2022-08-26T20:16:53.824Z,99587.06
2022-08-26T20:19:39.328Z,99582.56
2022-08-26T20:22:06.333Z,99581.50
2022-08-26T20:24:33.379Z,99577.34
2022-08-26T20:27:03.248Z,99583.84
2022-08-26T20:29:32.942Z,99577.78
2022-08-26T20:31:59.615Z,99580.28
2022-08-26T20:34:27.252Z,99580.50
2022-08-26T20:36:54.060Z,99592.88
2022-08-26T20:39:21.493Z,99591.34
2022-08-26T20:41:49.004Z,99601.25
2022-08-26T20:44:17.714Z,99598.31
2022-08-26T20:46:45.013Z,99600.06
2022-08-26T20:49:13.124Z,99607.22
2022-08-26T20:51:40.822Z,99607.81
2022-08-26T20:54:07.564Z,99602.50
2022-08-26T20:56:34.921Z,99600.16
2022-08-26T20:59:02.271Z,99605.78
2022-08-26T21:01:34.274Z,99614.63
2022-08-26T21:04:03.874Z,99611.94
2022-08-26T21:06:33.775Z,99619.34
2022-08-26T21:09:01.682Z,99612.16
2022-08-26T21:11:29.184Z,99619.94
2022-08-26T21:14:15.962Z,99614.78
2022-08-26T21:16:43.401Z,99617.06
2022-08-26T21:19:11.796Z,99626.50
2022-08-26T21:21:38.641Z,99621.28
2022-08-26T21:24:05.721Z,99620.81
2022-08-26T21:26:32.861Z,99626.69
2022-08-26T21:29:00.806Z,99624.34
2022-08-26T21:31:29.741Z,99624.75
2022-08-26T21:33:56.657Z,99630.84
2022-08-26T21:36:23.473Z,99627.06
2022-08-26T21:38:50.112Z,99639.19
2022-08-26T21:41:19.481Z,99642.97
2022-08-26T21:43:47.213Z,99641.47
2022-08-26T21:46:16.278Z,99647.56
2022-08-26T21:48:48.828Z,99646.28
2022-08-26T21:51:19.679Z,99636.47
2022-08-26T21:53:46.507Z,99635.91
2022-08-26T21:56:15.742Z,99642.16
2022-08-26T21:58:42.791Z,99634.38
2022-08-26T22:01:13.306Z,99629.06
2022-08-26T22:03:47.568Z,99636.78
2022-08-26T22:06:20.125Z,99639.81
2022-08-26T22:08:46.959Z,99630.63
2022-08-26T22:11:15.454Z,99643.97
2022-08-26T22:13:43.176Z,99651.41
2022-08-26T22:16:10.485Z,99647.88
2022-08-26T22:18:37.760Z,99650.44
2022-08-26T22:21:10.042Z,99655.28
2022-08-26T22:23:38.083Z,99656.28
2022-08-26T22:26:09.329Z,99665.31
2022-08-26T22:28:36.992Z,99659.69
2022-08-26T22:31:03.738Z,99665.53
2022-08-26T22:33:30.396Z,99669.63
2022-08-26T22:35:57.193Z,99659.44
2022-08-26T22:38:24.050Z,99655.22
2022-08-26T22:40:55.912Z,99657.94
2022-08-26T22:43:28.538Z,99660.81
2022-08-26T22:45:56.993Z,99659.47
2022-08-26T22:48:26.355Z,99662.41
2022-08-26T22:50:59.982Z,99674.28
2022-08-26T22:53:29.153Z,99669.00
2022-08-26T22:55:59.730Z,99667.34
2022-08-26T22:58:31.044Z,99667.41
2022-08-26T23:00:58.020Z,99664.66
2022-08-26T23:03:26.590Z,99666.97
2022-08-26T23:05:53.599Z,99663.88
2022-08-26T23:08:20.366Z,99669.09
2022-08-26T23:10:47.798Z,99671.88
2022-08-26T23:13:15.364Z,99672.31
2022-08-26T23:15:43.213Z,99663.56
2022-08-26T23:18:10.375Z,99667.31
2022-08-26T23:20:37.974Z,99652.34
2022-08-26T23:23:04.895Z,99647.38
2022-08-26T23:25:33.105Z,99649.31
2022-08-26T23:28:01.008Z,99649.47
2022-08-26T23:30:30.427Z,99654.00
2022-08-26T23:32:57.426Z,99660.59
2022-08-26T23:35:24.385Z,99651.03
2022-08-26T23:37:53.284Z,99646.91
2022-08-26T23:40:22.118Z,99643.97
2022-08-26T23:42:48.870Z,99645.47
2022-08-26T23:45:18.281Z,99649.69
2022-08-26T23:47:50.402Z,99652.25
2022-08-26T23:50:19.090Z,99642.41
2022-08-26T23:53:04.318Z,99640.66
2022-08-26T23:55:33.935Z,99647.81
2022-08-26T23:58:01.941Z,99642.16
